Time;durP1;ratioP1;P1;durP2;ratioP2;P2;SDS_P1;SDS_P2;PMS_P1;PMS_P2;Temp;Humidity;BMP_temperature;BMP_pressure;BME280_temperature;BME280_humidity;BME280_pressure;Samples;Min_cycle;Max_cycle;Signal;HPM_P1;HPM_P2
2023/08/12 00:01:54;;;;;;;7.43;4.20;;;13.00;99.90;;;;;;6098347;23;20030;-87
2023/08/12 00:04:23;;;;;;;7.80;4.32;;;13.00;99.90;;;;;;6120873;23;20070;-87
2023/08/12 00:06:51;;;;;;;5.93;4.45;;;12.90;99.90;;;;;;6126995;23;20025;-87
2023/08/12 00:09:19;;;;;;;6.88;3.83;;;12.90;99.90;;;;;;6106346;23;19998;-88
2023/08/12 00:11:47;;;;;;;7.85;4.45;;;13.00;99.90;;;;;;6129780;23;20018;-85
2023/08/12 00:14:15;;;;;;;6.60;4.35;;;13.00;99.90;;;;;;6105126;23;20054;-87
2023/08/12 00:16:43;;;;;;;5.53;4.03;;;13.00;99.90;;;;;;6106963;23;20044;-87
2023/08/12 00:19:13;;;;;;;6.15;4.18;;;12.90;99.90;;;;;;6107359;23;20023;-85
2023/08/12 00:21:43;;;;;;;7.03;4.32;;;12.80;99.90;;;;;;6077629;23;20026;-86
2023/08/12 00:24:11;;;;;;;7.13;4.22;;;12.80;99.90;;;;;;6082275;23;20305;-86
2023/08/12 00:26:38;;;;;;;6.93;4.50;;;12.70;99.90;;;;;;6109180;23;20440;-87
2023/08/12 00:29:06;;;;;;;9.93;4.93;;;12.70;99.90;;;;;;6071452;23;20097;-88
2023/08/12 00:31:33;;;;;;;8.32;4.50;;;12.60;99.90;;;;;;6103761;23;20093;-87
2023/08/12 00:34:00;;;;;;;7.85;4.90;;;12.50;99.90;;;;;;6080656;23;20582;-88
2023/08/12 00:36:30;;;;;;;8.18;4.32;;;12.50;99.90;;;;;;6085082;23;20089;-86
2023/08/12 00:39:00;;;;;;;8.05;4.60;;;12.50;99.90;;;;;;6093041;23;20019;-88
2023/08/12 00:41:29;;;;;;;6.05;4.13;;;12.70;99.90;;;;;;6112216;23;20026;-87
2023/08/12 00:43:57;;;;;;;7.40;4.68;;;12.70;99.90;;;;;;6108435;23;20390;-85
2023/08/12 00:46:25;;;;;;;8.35;5.15;;;12.60;99.90;;;;;;6098850;23;20031;-84
2023/08/12 00:48:54;;;;;;;8.63;4.93;;;12.50;99.90;;;;;;6074098;23;20026;-86
2023/08/12 00:51:21;;;;;;;15.05;4.72;;;12.50;99.90;;;;;;6073537;23;20212;-84
2023/08/12 00:53:51;;;;;;;7.68;5.15;;;12.50;99.90;;;;;;6109825;23;20053;-86
2023/08/12 00:56:20;;;;;;;7.22;4.93;;;12.40;99.90;;;;;;6115188;23;20090;-85
2023/08/12 00:58:48;;;;;;;10.32;5.10;;;12.40;99.90;;;;;;6123415;23;20026;-84
2023/08/12 01:01:17;;;;;;;6.10;4.50;;;12.40;99.90;;;;;;6097003;23;20014;-86
2023/08/12 01:03:46;;;;;;;6.65;4.60;;;12.40;99.90;;;;;;6129135;23;20067;-85
2023/08/12 01:06:54;;;;;;;7.10;4.70;;;12.30;99.90;;;;;;6085160;23;20042;-86
2023/08/12 01:09:22;;;;;;;10.13;5.28;;;12.30;99.90;;;;;;6108047;23;20097;-86
2023/08/12 01:11:58;;;;;;;7.85;5.20;;;12.30;99.90;;;;;;6132695;23;20042;-85
2023/08/12 01:14:28;;;;;;;;;;;12.30;99.90;;;;;;6098408;23;20038;-86
2023/08/12 01:17:05;;;;;;;6.28;4.93;;;12.30;99.90;;;;;;6093627;23;19960;-86
2023/08/12 01:19:40;;;;;;;6.60;4.22;;;12.20;99.90;;;;;;6106510;23;20054;-87
2023/08/12 01:22:09;;;;;;;;;;;12.20;99.90;;;;;;6076745;23;20019;-85
2023/08/12 01:24:54;;;;;;;10.50;4.35;;;12.10;99.90;;;;;;6105374;23;19917;-86
2023/08/12 01:27:23;;;;;;;7.88;4.53;;;12.20;99.90;;;;;;6073997;23;20018;-89
2023/08/12 01:29:58;;;;;;;9.68;4.72;;;12.30;99.90;;;;;;6093308;23;20022;-86
2023/08/12 01:32:32;;;;;;;11.48;8.35;;;12.20;99.90;;;;;;6082517;23;20019;-86
2023/08/12 01:35:17;;;;;;;6.25;4.28;;;12.10;99.90;;;;;;6102857;23;20020;-87
2023/08/12 01:37:46;;;;;;;6.57;3.90;;;12.10;99.90;;;;;;6072166;23;20105;-87
2023/08/12 01:40:18;;;;;;;5.70;4.40;;;12.00;99.90;;;;;;6069502;23;20018;-87
2023/08/12 01:42:45;;;;;;;17.35;10.43;;;12.00;99.90;;;;;;6091701;23;20033;-86
2023/08/12 01:45:15;;;;;;;6.85;4.35;;;12.00;99.90;;;;;;6096636;23;20026;-88
2023/08/12 01:47:44;;;;;;;6.35;3.85;;;12.00;99.90;;;;;;6071052;23;20022;-86
2023/08/12 01:50:18;;;;;;;5.82;3.72;;;12.00;99.90;;;;;;6083272;23;20026;-87
2023/08/12 01:52:46;;;;;;;9.57;4.50;;;11.90;99.90;;;;;;6106181;23;20028;-87
2023/08/12 01:55:16;;;;;;;5.63;4.10;;;11.90;99.90;;;;;;6104268;23;20030;-88
2023/08/12 01:57:43;;;;;;;7.68;3.83;;;11.90;99.90;;;;;;6109211;23;20061;-88
2023/08/12 02:00:11;;;;;;;7.28;4.38;;;11.80;99.90;;;;;;6093349;23;20042;-87
2023/08/12 02:02:47;;;;;;;8.27;4.57;;;11.80;99.90;;;;;;6113133;23;20050;-87
2023/08/12 02:05:14;;;;;;;10.32;4.28;;;11.80;99.90;;;;;;6109202;23;20042;-85
2023/08/12 02:07:42;;;;;;;7.80;4.28;;;11.70;99.90;;;;;;6073226;23;20351;-87
2023/08/12 02:10:15;;;;;;;5.28;4.07;;;11.80;99.90;;;;;;6071587;23;20022;-88
2023/08/12 02:12:44;;;;;;;6.35;3.78;;;11.90;99.90;;;;;;6072907;23;20045;-87
2023/08/12 02:15:13;;;;;;;7.80;4.28;;;11.80;99.90;;;;;;6096829;23;20049;-89
2023/08/12 02:17:41;;;;;;;6.70;4.30;;;11.80;99.90;;;;;;6075404;23;20097;-87
2023/08/12 02:20:09;;;;;;;8.18;4.20;;;11.70;99.90;;;;;;6105230;23;20026;-89
2023/08/12 02:22:37;;;;;;;6.88;3.97;;;11.70;99.90;;;;;;6073491;23;20023;-88
2023/08/12 02:25:05;;;;;;;9.50;4.43;;;11.70;99.90;;;;;;6071520;23;20049;-89
2023/08/12 02:27:33;;;;;;;6.63;5.22;;;11.70;99.90;;;;;;6096086;23;20026;-88
2023/08/12 02:30:02;;;;;;;7.22;4.88;;;11.70;99.90;;;;;;6097761;23;20459;-88
2023/08/12 02:32:30;;;;;;;5.72;3.63;;;11.70;99.90;;;;;;6119494;23;20002;-89
2023/08/12 02:34:57;;;;;;;5.50;4.43;;;11.70;99.90;;;;;;6111134;23;20026;-90
2023/08/12 02:37:25;;;;;;;5.38;4.20;;;11.70;99.90;;;;;;6111602;23;20030;-88
2023/08/12 02:39:52;;;;;;;7.00;4.13;;;11.60;99.90;;;;;;6072211;23;20034;-87
2023/08/12 02:42:19;;;;;;;6.15;4.38;;;11.50;99.90;;;;;;6103849;23;20402;-89
2023/08/12 02:44:47;;;;;;;5.72;4.25;;;11.50;99.90;;;;;;6047129;23;20029;-88
2023/08/12 02:47:17;;;;;;;8.52;4.50;;;11.40;99.90;;;;;;6096605;23;20027;-87
2023/08/12 02:49:45;;;;;;;7.95;4.47;;;11.50;99.90;;;;;;6071391;23;20415;-90
2023/08/12 02:52:15;;;;;;;8.13;4.68;;;11.40;99.90;;;;;;6070598;23;20029;-89
2023/08/12 02:54:42;;;;;;;7.32;4.43;;;11.30;99.90;;;;;;6096873;23;20082;-88
2023/08/12 02:57:10;;;;;;;8.85;4.25;;;11.40;99.90;;;;;;6070848;23;20022;-86
2023/08/12 02:59:37;;;;;;;7.72;4.45;;;11.30;99.90;;;;;;6096952;23;20029;-87
2023/08/12 03:02:05;;;;;;;6.82;3.92;;;11.30;99.90;;;;;;6098085;23;20074;-88
2023/08/12 03:04:33;;;;;;;6.57;4.57;;;11.30;99.90;;;;;;6069555;23;20022;-89
2023/08/12 03:07:03;;;;;;;8.68;4.60;;;11.30;99.90;;;;;;6100558;23;20045;-88
2023/08/12 03:09:31;;;;;;;9.73;5.10;;;11.30;99.90;;;;;;6056277;23;20032;-88
2023/08/12 03:12:01;;;;;;;7.15;4.70;;;11.20;99.90;;;;;;6070877;23;20030;-89
2023/08/12 03:14:30;;;;;;;10.27;5.82;;;11.20;99.90;;;;;;6069907;23;20023;-89
2023/08/12 03:17:00;;;;;;;9.70;5.43;;;11.20;99.90;;;;;;6094646;23;20030;-90
2023/08/12 03:19:28;;;;;;;8.45;5.50;;;11.30;99.90;;;;;;6072603;23;20026;-88
2023/08/12 03:21:57;;;;;;;7.63;5.63;;;11.20;99.90;;;;;;6080076;23;20028;-89
2023/08/12 03:24:24;;;;;;;11.40;5.88;;;11.20;99.90;;;;;;6070096;23;20033;-88
2023/08/12 03:26:52;;;;;;;9.23;6.28;;;11.20;99.90;;;;;;6077972;23;20022;-88
2023/08/12 03:29:19;;;;;;;12.23;6.47;;;11.30;99.90;;;;;;6099042;23;20026;-88
2023/08/12 03:31:49;;;;;;;8.07;5.38;;;11.10;99.90;;;;;;6074785;23;20030;-89
2023/08/12 03:34:17;;;;;;;10.38;6.25;;;11.20;99.90;;;;;;6108381;23;20053;-87
2023/08/12 03:36:46;;;;;;;7.35;5.03;;;11.00;99.90;;;;;;6095713;23;20070;-87
2023/08/12 03:39:15;;;;;;;6.80;5.22;;;10.90;99.90;;;;;;6097879;23;20062;-88
2023/08/12 03:41:44;;;;;;;6.88;4.90;;;11.00;99.90;;;;;;6098550;23;20002;-88
2023/08/12 03:44:12;;;;;;;7.00;4.68;;;11.00;99.90;;;;;;6090768;23;20391;-88
2023/08/12 03:46:39;;;;;;;9.25;5.50;;;11.00;99.90;;;;;;6089673;23;20089;-90
2023/08/12 03:49:56;;;;;;;7.47;4.85;;;11.20;99.90;;;;;;6113827;23;20081;-88
2023/08/12 03:52:24;;;;;;;8.40;4.80;;;11.10;99.90;;;;;;6081484;23;20040;-90
2023/08/12 03:54:54;;;;;;;10.13;5.13;;;11.10;99.90;;;;;;6082170;23;20018;-90
2023/08/12 03:57:22;;;;;;;8.40;5.28;;;11.10;99.90;;;;;;6111951;23;20069;-90
2023/08/12 03:59:50;;;;;;;8.23;5.10;;;11.10;99.90;;;;;;6083126;23;20032;-88
2023/08/12 04:02:18;;;;;;;7.32;4.78;;;11.10;99.90;;;;;;6080996;23;20022;-87
2023/08/12 04:04:46;;;;;;;9.70;5.32;;;11.10;99.90;;;;;;6074030;23;20082;-88
2023/08/12 04:07:13;;;;;;;7.43;5.18;;;11.20;99.90;;;;;;6079010;23;20027;-88
2023/08/12 04:09:42;;;;;;;6.35;5.10;;;11.20;99.90;;;;;;6089771;23;20015;-88
2023/08/12 04:12:10;;;;;;;11.10;4.97;;;11.20;99.90;;;;;;6119045;23;20042;-88
2023/08/12 04:14:38;;;;;;;8.13;4.90;;;11.40;99.90;;;;;;6097181;23;20002;-87
2023/08/12 04:17:21;;;;;;;6.45;3.90;;;11.60;99.90;;;;;;6097516;23;20026;-86
2023/08/12 04:19:50;;;;;;;10.88;4.72;;;12.10;99.90;;;;;;6122478;23;20006;-87
2023/08/12 04:22:35;;;;;;;7.60;4.53;;;12.60;99.90;;;;;;6128989;23;20029;-85
2023/08/12 04:25:04;;;;;;;7.28;4.55;;;13.10;99.90;;;;;;6074134;23;20026;-86
2023/08/12 04:27:34;;;;;;;10.13;4.40;;;13.60;99.90;;;;;;6080773;23;20409;-88
2023/08/12 04:30:05;;;;;;;6.35;4.18;;;14.00;99.90;;;;;;6079941;23;20014;-88
2023/08/12 04:32:34;;;;;;;5.70;4.03;;;14.40;99.90;;;;;;6077339;23;20018;-88
2023/08/12 04:35:02;;;;;;;9.55;4.10;;;14.80;99.90;;;;;;6090718;23;20089;-85
2023/08/12 04:37:32;;;;;;;8.02;3.80;;;15.30;99.90;;;;;;6065420;23;20027;-87
2023/08/12 04:39:59;;;;;;;8.77;4.80;;;15.40;99.90;;;;;;6065292;23;20519;-88
2023/08/12 04:42:27;;;;;;;7.00;3.60;;;15.20;99.90;;;;;;6067774;23;20106;-87
2023/08/12 04:44:56;;;;;;;7.13;3.83;;;15.00;99.90;;;;;;6067768;23;20019;-90
2023/08/12 04:47:25;;;;;;;7.85;3.75;;;14.80;99.90;;;;;;6073144;23;20118;-91
2023/08/12 04:49:56;;;;;;;6.95;3.80;;;14.60;99.90;;;;;;6083534;23;20097;-87
2023/08/12 04:52:25;;;;;;;7.88;4.38;;;14.50;99.90;;;;;;6071797;23;20464;-88
2023/08/12 04:54:55;;;;;;;9.25;5.10;;;14.60;99.90;;;;;;6100653;23;20030;-88
2023/08/12 04:57:27;;;;;;;7.13;4.55;;;14.70;99.90;;;;;;6116039;23;20022;-89
2023/08/12 04:59:56;;;;;;;8.05;3.90;;;14.70;99.90;;;;;;6079312;23;20046;-89
2023/08/12 05:02:24;;;;;;;9.15;6.10;;;14.60;99.90;;;;;;6052310;23;20059;-89
2023/08/12 05:04:53;;;;;;;6.95;4.40;;;14.50;99.90;;;;;;6066445;23;20034;-89
2023/08/12 05:07:22;;;;;;;6.70;4.57;;;14.50;99.90;;;;;;6060572;23;20082;-89
2023/08/12 05:12:34;;;;;;;8.05;3.90;;;14.60;99.90;;;;;;6077054;23;20018;-90
2023/08/12 05:15:05;;;;;;;10.98;3.92;;;14.70;99.90;;;;;;6069115;23;20349;-88
2023/08/12 05:17:33;;;;;;;7.85;4.57;;;14.80;99.90;;;;;;6069727;23;20425;-89
2023/08/12 05:20:01;;;;;;;16.77;6.43;;;14.80;99.90;;;;;;6066914;23;20027;-86
2023/08/12 05:22:28;;;;;;;7.60;4.60;;;14.90;99.90;;;;;;6066334;23;20039;-90
2023/08/12 05:24:58;;;;;;;7.93;5.00;;;14.90;99.90;;;;;;6069079;23;20052;-87
2023/08/12 05:27:26;;;;;;;10.18;4.40;;;15.20;99.90;;;;;;6076320;23;20245;-89
2023/08/12 05:29:54;;;;;;;11.48;5.70;;;15.60;99.90;;;;;;6079708;23;20018;-90
2023/08/12 05:32:23;;;;;;;7.97;4.75;;;16.10;99.90;;;;;;6068866;23;20026;-90
2023/08/12 05:34:53;;;;;;;7.80;4.30;;;16.50;99.90;;;;;;6098233;23;20026;-89
2023/08/12 05:37:22;;;;;;;11.02;4.93;;;17.00;99.90;;;;;;6103527;23;20030;-91
2023/08/12 05:39:49;;;;;;;8.48;4.47;;;17.40;99.90;;;;;;6092429;23;20408;-92
2023/08/12 05:42:19;;;;;;;10.27;5.50;;;17.70;99.90;;;;;;6111272;23;20474;-90
2023/08/12 05:44:46;;;;;;;9.63;5.15;;;17.90;99.90;;;;;;6112862;23;20019;-88
2023/08/12 05:47:14;;;;;;;10.13;4.88;;;18.20;99.90;;;;;;6101995;23;20030;-89
2023/08/12 05:49:43;;;;;;;10.35;5.47;;;18.30;99.90;;;;;;6114053;23;20032;-88
2023/08/12 05:52:10;;;;;;;9.60;4.93;;;18.40;99.90;;;;;;6096182;23;20078;-88
2023/08/12 05:54:43;;;;;;;9.05;4.53;;;18.40;99.90;;;;;;6095229;23;20028;-87
2023/08/12 05:57:17;;;;;;;16.55;6.90;;;18.40;99.90;;;;;;6113620;23;20418;-88
2023/08/12 05:59:44;;;;;;;11.05;5.50;;;18.50;99.90;;;;;;6103240;23;19998;-87
2023/08/12 06:02:29;;;;;;;9.90;6.60;;;18.70;99.90;;;;;;6096332;23;20034;-88
2023/08/12 06:05:01;;;;;;;9.43;4.63;;;18.80;99.90;;;;;;6109670;23;20038;-87
2023/08/12 06:07:44;;;;;;;10.65;5.20;;;18.90;99.90;;;;;;6076564;23;20030;-88
2023/08/12 06:10:14;;;;;;;9.77;5.13;;;18.80;99.90;;;;;;6100945;23;20029;-86
2023/08/12 06:12:43;;;;;;;10.48;6.60;;;18.80;99.90;;;;;;6106746;23;20615;-88
2023/08/12 06:15:12;;;;;;;12.38;5.78;;;18.70;99.90;;;;;;6077207;23;20077;-85
2023/08/12 06:17:40;;;;;;;8.15;5.25;;;18.70;99.90;;;;;;6110816;23;20018;-88
2023/08/12 06:20:10;;;;;;;10.25;5.57;;;18.70;99.90;;;;;;6074517;23;20046;-86
2023/08/12 06:22:41;;;;;;;8.75;5.07;;;18.90;99.90;;;;;;6078873;23;20028;-87
2023/08/12 06:25:11;;;;;;;10.35;5.18;;;18.90;99.90;;;;;;6071101;23;20026;-85
2023/08/12 06:27:41;;;;;;;10.43;5.25;;;19.10;99.90;;;;;;6104565;23;20030;-88
2023/08/12 06:30:10;;;;;;;8.07;4.65;;;19.40;99.90;;;;;;6077661;23;20074;-87
2023/08/12 06:32:37;;;;;;;16.17;5.97;;;19.60;99.90;;;;;;6076104;23;20014;-86
2023/08/12 06:35:06;;;;;;;13.30;5.22;;;19.80;99.90;;;;;;6118995;23;20022;-79
2023/08/12 06:40:34;;;;;;;9.43;4.85;;;20.20;99.90;;;;;;6117953;23;20026;-86
2023/08/12 06:43:04;;;;;;;9.07;5.13;;;20.30;99.90;;;;;;6115526;23;20363;-90
2023/08/12 06:45:32;;;;;;;11.98;6.13;;;20.40;99.90;;;;;;6105709;23;20050;-89
2023/08/12 06:48:01;;;;;;;12.15;4.85;;;20.70;99.90;;;;;;6076931;23;20026;-89
2023/08/12 06:50:30;;;;;;;12.48;5.40;;;20.90;99.90;;;;;;6098094;23;20030;-88
2023/08/12 06:52:59;;;;;;;10.05;7.78;;;21.10;99.90;;;;;;6055634;23;20074;-88
2023/08/12 06:55:27;;;;;;;8.27;4.72;;;21.20;99.90;;;;;;6077077;23;20026;-86
2023/08/12 06:57:58;;;;;;;9.77;4.63;;;21.10;99.90;;;;;;6108712;23;20037;-83
2023/08/12 07:00:34;;;;;;;13.32;5.72;;;21.20;99.90;;;;;;6108062;23;20034;-81
2023/08/12 07:03:03;;;;;;;13.70;5.40;;;21.30;99.90;;;;;;6103729;23;20026;-87
2023/08/12 07:05:30;;;;;;;16.02;7.65;;;21.50;99.90;;;;;;6130187;23;20030;-85
2023/08/12 07:07:58;;;;;;;14.80;5.53;;;21.70;99.90;;;;;;6091661;23;20031;-81
2023/08/12 07:10:27;;;;;;;10.65;5.20;;;21.90;99.90;;;;;;6112438;23;20010;-79
2023/08/12 07:16:17;;;;;;;39.75;27.60;;;22.20;99.90;;;;;;5940218;24;20354;-85
2023/08/12 07:18:48;;;;;;;8.32;5.97;;;22.20;99.90;;;;;;5993112;24;20056;-83
2023/08/12 07:21:22;;;;;;;14.57;8.65;;;22.10;99.90;;;;;;5997260;24;20024;-89
2023/08/12 07:23:50;;;;;;;10.75;4.70;;;22.10;99.90;;;;;;6003608;24;20042;-85
2023/08/12 07:26:20;;;;;;;7.93;4.22;;;22.10;99.90;;;;;;5981327;23;20012;-89
2023/08/12 07:28:54;;;;;;;15.57;5.45;;;22.20;99.90;;;;;;6005650;23;20009;-87
2023/08/12 07:31:22;;;;;;;8.23;5.10;;;22.20;99.90;;;;;;5969069;24;20027;-87
2023/08/12 07:34:21;;;;;;;13.48;7.20;;;22.30;99.90;;;;;;5969515;24;20027;-86
2023/08/12 07:36:49;;;;;;;16.10;5.72;;;22.30;99.90;;;;;;5992223;23;20024;-87
2023/08/12 07:39:19;;;;;;;12.45;6.10;;;22.40;99.90;;;;;;5992116;23;20025;-86
2023/08/12 07:41:47;;;;;;;10.25;5.85;;;22.30;99.90;;;;;;5959533;24;20431;-89
2023/08/12 07:44:16;;;;;;;8.52;4.85;;;22.40;99.90;;;;;;5965953;24;20146;-89
2023/08/12 07:46:44;;;;;;;9.43;4.65;;;22.50;99.90;;;;;;5999145;23;20024;-87
2023/08/12 07:49:11;;;;;;;10.38;4.63;;;22.60;99.90;;;;;;6000656;23;20024;-86
2023/08/12 07:51:41;;;;;;;9.30;5.32;;;22.60;99.90;;;;;;5964859;23;20048;-85
2023/08/12 07:54:09;;;;;;;12.88;4.68;;;22.60;99.90;;;;;;6064531;23;20002;-87
2023/08/12 07:56:36;;;;;;;12.23;4.55;;;22.70;99.90;;;;;;6079634;23;20429;-80
2023/08/12 07:59:03;;;;;;;11.75;6.38;;;22.70;99.90;;;;;;6067919;23;20027;-82
2023/08/12 08:01:33;;;;;;;9.93;4.78;;;22.60;99.90;;;;;;6077262;23;20058;-83
2023/08/12 08:04:01;;;;;;;9.60;4.10;;;22.70;99.90;;;;;;6065907;23;20019;-77
2023/08/12 08:06:28;;;;;;;8.82;4.47;;;22.80;99.90;;;;;;6065483;23;20031;-81
2023/08/12 08:08:56;;;;;;;9.50;6.35;;;23.10;99.90;;;;;;6076246;23;20023;-81
2023/08/12 08:11:25;;;;;;;9.27;5.18;;;23.30;99.90;;;;;;6064037;23;20046;-81
2023/08/12 08:13:52;;;;;;;6.80;4.53;;;23.40;99.90;;;;;;6054814;23;20026;-84
2023/08/12 08:16:20;;;;;;;7.78;4.20;;;23.40;99.90;;;;;;6073127;23;20057;-86
2023/08/12 08:18:49;;;;;;;6.03;3.90;;;23.50;99.90;;;;;;6074743;23;20102;-80
2023/08/12 08:21:16;;;;;;;8.10;4.10;;;23.60;99.90;;;;;;6073643;23;20035;-83
2023/08/12 08:23:45;;;;;;;7.32;4.15;;;23.80;99.90;;;;;;6075347;23;20022;-82
2023/08/12 08:26:12;;;;;;;5.68;3.50;;;23.80;99.90;;;;;;6067308;23;20026;-82
2023/08/12 08:28:40;;;;;;;7.72;3.50;;;23.70;99.90;;;;;;6070853;23;20027;-82
2023/08/12 08:31:07;;;;;;;8.32;3.92;;;23.60;99.90;;;;;;6073096;23;20079;-82
2023/08/12 08:33:35;;;;;;;5.63;3.60;;;23.60;99.90;;;;;;6089814;23;20080;-81
2023/08/12 08:36:04;;;;;;;10.55;4.10;;;23.60;99.90;;;;;;6076173;23;20063;-81
2023/08/12 08:38:31;;;;;;;9.35;4.65;;;23.50;99.90;;;;;;6106002;23;20309;-82
2023/08/12 08:40:59;;;;;;;5.82;3.90;;;23.60;99.90;;;;;;6097824;23;20312;-80
2023/08/12 08:43:28;;;;;;;9.30;4.28;;;23.70;99.90;;;;;;6073560;23;20058;-82
2023/08/12 08:45:56;;;;;;;9.38;4.78;;;23.80;99.90;;;;;;6109815;23;20141;-83
2023/08/12 08:48:26;;;;;;;6.95;3.95;;;24.00;99.90;;;;;;6105768;23;20027;-81
2023/08/12 08:50:55;;;;;;;6.80;3.70;;;24.10;99.90;;;;;;6107994;23;20022;-80
2023/08/12 08:53:25;;;;;;;8.80;3.92;;;24.20;99.90;;;;;;6074647;23;20026;-86
2023/08/12 08:55:54;;;;;;;7.78;4.00;;;24.40;99.90;;;;;;6079431;23;20097;-81
2023/08/12 08:58:32;;;;;;;5.70;3.47;;;24.60;99.90;;;;;;6089842;23;20045;-79
2023/08/12 09:01:01;;;;;;;7.10;3.78;;;24.80;99.90;;;;;;6107381;23;20023;-80
2023/08/12 09:03:29;;;;;;;7.68;4.15;;;24.80;99.90;;;;;;6072042;23;20090;-82
2023/08/12 09:05:57;;;;;;;7.85;3.47;;;24.60;99.90;;;;;;6105957;23;20015;-81
2023/08/12 09:08:27;;;;;;;8.77;3.42;;;24.50;99.90;;;;;;6097896;23;20055;-82
2023/08/12 09:10:56;;;;;;;6.57;3.80;;;24.70;99.90;;;;;;6098922;23;20030;-83
2023/08/12 09:13:23;;;;;;;8.52;4.13;;;24.80;99.90;;;;;;6101944;23;20086;-80
2023/08/12 09:15:53;;;;;;;12.32;4.10;;;24.90;99.90;;;;;;6095828;23;20026;-80
2023/08/12 09:18:24;;;;;;;4.43;3.45;;;25.10;99.90;;;;;;6108137;23;20522;-81
2023/08/12 09:20:54;;;;;;;5.53;3.70;;;25.30;99.90;;;;;;6106609;23;20121;-83
2023/08/12 09:23:22;;;;;;;7.25;4.45;;;25.50;99.90;;;;;;6070664;23;20359;-81
2023/08/12 09:25:50;;;;;;;8.90;5.47;;;25.60;99.90;;;;;;6097700;23;20026;-82
2023/08/12 09:28:18;;;;;;;8.80;5.55;;;25.50;99.90;;;;;;6099034;23;20030;-83
2023/08/12 09:30:53;;;;;;;6.32;3.40;;;25.40;99.90;;;;;;6102202;23;20344;-83
2023/08/12 09:33:26;;;;;;;5.53;3.85;;;25.40;99.90;;;;;;6068800;23;20041;-83
2023/08/12 09:35:56;;;;;;;8.82;4.38;;;25.40;99.90;;;;;;6104263;23;20347;-83
2023/08/12 09:38:23;;;;;;;6.15;3.72;;;25.30;99.90;;;;;;6093728;23;20050;-85
2023/08/12 09:40:54;;;;;;;6.13;3.13;;;25.30;99.90;;;;;;6098671;23;20022;-85
2023/08/12 09:43:25;;;;;;;9.60;3.88;;;25.20;99.90;;;;;;6072005;23;20030;-82
2023/08/12 09:45:52;;;;;;;7.68;4.30;;;25.40;99.90;;;;;;6071165;23;20030;-84
2023/08/12 09:48:20;;;;;;;7.07;3.50;;;25.70;99.90;;;;;;6105530;23;20468;-81
2023/08/12 09:50:47;;;;;;;5.25;3.72;;;26.00;99.90;;;;;;6112779;23;20019;-83
2023/08/12 09:53:14;;;;;;;6.28;3.60;;;26.10;99.90;;;;;;6101148;23;20027;-82
2023/08/12 09:55:44;;;;;;;4.40;3.15;;;26.30;99.90;;;;;;6095114;23;20066;-81
2023/08/12 09:58:17;;;;;;;4.90;3.30;;;26.40;99.90;;;;;;6098671;23;20030;-84
2023/08/12 10:00:45;;;;;;;7.43;3.65;;;26.50;99.90;;;;;;6068762;23;20022;-81
2023/08/12 10:03:15;;;;;;;6.07;3.75;;;26.80;99.90;;;;;;6105511;23;20320;-83
2023/08/12 10:05:43;;;;;;;7.28;3.40;;;26.90;99.90;;;;;;6103853;23;20022;-83
2023/08/12 10:08:13;;;;;;;6.25;4.05;;;26.80;99.90;;;;;;6069816;23;20105;-83
2023/08/12 10:10:42;;;;;;;6.18;4.50;;;26.80;99.90;;;;;;6103264;23;20022;-82
2023/08/12 10:13:12;;;;;;;5.80;4.15;;;26.80;99.90;;;;;;6096437;23;20097;-81
2023/08/12 10:15:39;;;;;;;7.38;4.47;;;27.20;99.90;;;;;;6101640;23;20041;-83
2023/08/12 10:18:07;;;;;;;6.20;3.50;;;27.50;99.90;;;;;;6103485;23;20041;-83
2023/08/12 10:20:36;;;;;;;7.05;5.15;;;27.50;99.90;;;;;;6105747;23;20081;-82
2023/08/12 10:23:06;;;;;;;7.43;4.65;;;27.20;99.90;;;;;;6098511;23;20105;-82
2023/08/12 10:25:34;;;;;;;4.78;3.83;;;27.20;99.90;;;;;;6069944;23;20022;-82
2023/08/12 10:28:01;;;;;;;7.32;3.85;;;27.00;99.90;;;;;;6073174;23;20074;-83
2023/08/12 10:30:33;;;;;;;5.25;3.70;;;27.10;99.90;;;;;;6112785;23;20403;-81
2023/08/12 10:33:03;;;;;;;4.65;3.47;;;27.00;99.90;;;;;;6113112;23;20069;-83
2023/08/12 10:35:49;;;;;;;7.03;3.95;;;26.80;99.90;;;;;;6129846;23;20030;-83
2023/08/12 10:38:19;;;;;;;5.43;3.58;;;26.80;99.90;;;;;;6119781;23;20041;-82
2023/08/12 10:40:48;;;;;;;5.38;3.92;;;26.80;99.90;;;;;;6115807;23;20042;-81
2023/08/12 10:43:16;;;;;;;4.70;3.60;;;27.20;99.90;;;;;;6109093;23;20046;-84
2023/08/12 10:46:22;;;;;;;4.47;3.85;;;27.30;99.90;;;;;;6111212;23;20359;-82
2023/08/12 10:48:58;;;;;;;8.00;3.92;;;27.30;99.90;;;;;;6108275;23;20018;-83
2023/08/12 10:51:41;;;;;;;4.72;3.70;;;27.30;99.90;;;;;;6105666;23;20046;-83
2023/08/12 10:54:15;;;;;;;5.28;3.38;;;27.30;99.90;;;;;;6107992;23;20010;-82
2023/08/12 10:57:11;;;;;;;5.97;3.60;;;26.80;99.90;;;;;;6109632;23;20030;-81
2023/08/12 10:59:52;;;;;;;6.40;4.00;;;26.80;99.90;;;;;;6100522;23;20605;-83
2023/08/12 11:02:26;;;;;;;7.13;4.90;;;26.70;99.90;;;;;;6097821;23;20399;-82
2023/08/12 11:04:54;;;;;;;6.88;5.18;;;26.80;99.90;;;;;;6101302;23;20030;-81
2023/08/12 11:07:28;;;;;;;6.78;4.13;;;27.20;99.90;;;;;;6073345;23;20031;-83
2023/08/12 11:10:00;;;;;;;6.97;3.75;;;27.40;99.90;;;;;;6105295;23;20030;-83
2023/08/12 11:12:32;;;;;;;5.97;4.05;;;27.40;99.90;;;;;;6075307;23;20022;-82
2023/08/12 11:15:01;;;;;;;6.38;4.15;;;27.10;99.90;;;;;;6112621;23;20014;-82
2023/08/12 11:17:37;;;;;;;6.60;4.32;;;26.90;99.90;;;;;;6098203;23;20030;-82
2023/08/12 11:20:09;;;;;;;5.13;3.58;;;26.70;99.90;;;;;;6096755;23;20026;-81
2023/08/12 11:22:39;;;;;;;8.52;4.47;;;26.70;99.90;;;;;;6098454;23;20102;-81
2023/08/12 11:25:09;;;;;;;6.10;4.28;;;26.80;99.90;;;;;;6099315;23;20046;-82
2023/08/12 11:27:41;;;;;;;5.78;4.25;;;27.30;99.90;;;;;;6069149;23;20403;-83
2023/08/12 11:30:10;;;;;;;7.88;3.97;;;27.10;99.90;;;;;;6103725;23;20025;-82
2023/08/12 11:32:39;;;;;;;7.43;4.68;;;27.30;99.90;;;;;;6104803;23;20015;-83
2023/08/12 11:35:08;;;;;;;4.78;2.90;;;27.10;99.90;;;;;;6070386;23;20022;-82
2023/08/12 11:37:36;;;;;;;4.40;3.30;;;26.50;99.90;;;;;;6105910;23;20033;-82
2023/08/12 11:40:05;;;;;;;5.32;3.80;;;26.20;99.90;;;;;;6107095;23;20026;-84
2023/08/12 11:42:33;;;;;;;4.90;3.72;;;25.80;99.90;;;;;;6060822;23;20053;-82
2023/08/12 11:45:00;;;;;;;8.70;4.35;;;25.50;99.90;;;;;;6107687;23;20015;-82
2023/08/12 11:47:28;;;;;;;5.32;3.75;;;25.40;99.90;;;;;;6109383;23;20097;-84
2023/08/12 11:49:57;;;;;;;5.53;4.07;;;25.30;99.90;;;;;;6100306;23;20030;-81
2023/08/12 11:52:27;;;;;;;7.55;4.47;;;25.20;99.90;;;;;;6114688;23;20021;-83
2023/08/12 11:55:02;;;;;;;5.20;3.90;;;25.10;99.90;;;;;;6123994;23;20018;-82
2023/08/12 11:57:29;;;;;;;5.07;4.00;;;25.10;99.90;;;;;;6098962;23;20027;-82
2023/08/12 12:00:00;;;;;;;6.25;3.72;;;25.30;99.90;;;;;;6127203;23;20249;-81
2023/08/12 12:02:27;;;;;;;8.45;4.97;;;25.70;99.90;;;;;;6120753;23;20074;-82
2023/08/12 12:04:55;;;;;;;8.50;6.50;;;26.10;99.90;;;;;;6123768;23;20045;-81
2023/08/12 12:07:27;;;;;;;5.63;4.60;;;26.60;99.90;;;;;;6124179;23;20144;-82
2023/08/12 12:09:55;;;;;;;7.93;4.93;;;27.00;99.90;;;;;;6126622;23;20029;-82
2023/08/12 12:12:26;;;;;;;6.35;4.90;;;27.40;99.90;;;;;;6128324;23;20018;-83
2023/08/12 12:14:54;;;;;;;8.65;7.55;;;27.60;99.90;;;;;;6124533;23;20033;-80
2023/08/12 12:17:23;;;;;;;10.50;8.43;;;27.60;99.90;;;;;;6108053;23;20019;-83
2023/08/12 12:19:56;;;;;;;8.02;4.50;;;27.70;99.90;;;;;;6114046;23;20036;-82
2023/08/12 12:22:30;;;;;;;6.75;4.30;;;27.40;99.90;;;;;;6116970;23;20041;-83
2023/08/12 12:25:02;;;;;;;7.30;4.45;;;27.50;99.90;;;;;;6114660;23;20026;-81
2023/08/12 12:27:31;;;;;;;6.78;4.40;;;27.40;99.90;;;;;;6111584;23;20034;-83
2023/08/12 12:29:59;;;;;;;6.45;3.47;;;27.30;99.90;;;;;;6074197;23;20046;-82
2023/08/12 12:32:26;;;;;;;5.35;3.15;;;27.10;99.90;;;;;;6099920;23;20026;-82
2023/08/12 12:34:55;;;;;;;5.50;3.47;;;26.50;99.90;;;;;;6104074;23;20046;-84
2023/08/12 12:37:22;;;;;;;3.78;3.17;;;26.20;99.90;;;;;;6102910;23;20029;-83
2023/08/12 12:39:51;;;;;;;5.95;3.58;;;26.10;99.90;;;;;;6104032;23;20054;-81
2023/08/12 12:42:18;;;;;;;4.30;3.20;;;26.30;99.90;;;;;;6107313;23;20029;-81
2023/08/12 12:44:46;;;;;;;7.70;3.50;;;26.10;99.90;;;;;;6111768;23;20021;-81
2023/08/12 12:47:14;;;;;;;5.38;3.05;;;26.00;99.90;;;;;;6099423;23;20026;-83
2023/08/12 12:49:42;;;;;;;4.53;3.22;;;25.80;99.90;;;;;;6071857;23;20077;-81
2023/08/12 12:52:10;;;;;;;4.47;3.40;;;25.90;99.90;;;;;;6072496;23;20033;-81
2023/08/12 12:54:38;;;;;;;4.20;3.03;;;26.10;99.90;;;;;;6076044;23;20014;-80
2023/08/12 12:57:07;;;;;;;6.30;3.03;;;26.50;99.90;;;;;;6114499;23;20018;-80
2023/08/12 12:59:34;;;;;;;4.20;3.15;;;26.60;99.90;;;;;;6117069;23;20022;-81
2023/08/12 13:02:01;;;;;;;4.13;3.00;;;26.60;99.90;;;;;;6099523;23;20097;-81
2023/08/12 13:04:29;;;;;;;5.25;3.40;;;26.80;99.90;;;;;;6101417;23;20533;-81
2023/08/12 13:06:57;;;;;;;5.10;3.55;;;27.00;99.90;;;;;;6072731;23;20018;-81
2023/08/12 13:09:24;;;;;;;5.57;3.75;;;27.20;99.90;;;;;;6106932;23;20030;-81